Metar z połowy godziny Komunikat METAR ze strony awiacja.imgw.pl Metar G00 EPBY METAR EPBY 271430Z VRB01KT 6000 FEW005 OVC010 02/01 Q0995=